Time;durP1;ratioP1;P1;durP2;ratioP2;P2;SDS_P1;SDS_P2;PMS_P1;PMS_P2;Temp;Humidity;BMP_temperature;BMP_pressure;BME280_temperature;BME280_humidity;BME280_pressure;Samples;Min_cycle;Max_cycle;Signal;HPM_P1;HPM_P2
2023/10/28 00:00:49;;;;;;;16.83;9.50;;;;;;;;;;5057819;28;20044;-91
2023/10/28 00:03:15;;;;;;;13.20;9.15;;;;;;;;;;5022878;28;20048;-89
2023/10/28 00:05:41;;;;;;;15.35;9.30;;;;;;;;;;5037210;28;20182;-87
2023/10/28 00:08:07;;;;;;;16.33;9.18;;;;;;;;;;5055973;28;20041;-84
2023/10/28 00:10:35;;;;;;;10.35;7.50;;;;;;;;;;5023146;28;20036;-86
2023/10/28 00:13:02;;;;;;;12.93;8.13;;;;;;;;;;5055813;28;20098;-91
2023/10/28 00:15:28;;;;;;;15.15;8.50;;;;;;;;;;5056398;28;20084;-86
2023/10/28 00:17:54;;;;;;;14.60;9.48;;;;;;;;;;5040263;28;20044;-87
2023/10/28 00:20:21;;;;;;;13.65;8.70;;;;;;;;;;5039985;28;20068;-90
2023/10/28 00:22:53;;;;;;;18.10;9.90;;;;;;;;;;5055612;28;20059;-92
2023/10/28 00:25:25;;;;;;;16.75;9.50;;;;;;;;;;5056385;28;20489;-89
2023/10/28 00:27:54;;;;;;;14.13;9.05;;;10.50;99.90;;;;;;5054707;28;20047;-91
2023/10/28 00:30:23;;;;;;;16.33;10.35;;;;;;;;;;5038140;28;20047;-91
2023/10/28 00:32:50;;;;;;;14.75;9.82;;;;;;;;;;5038389;28;20044;-91
2023/10/28 00:35:16;;;;;;;18.48;10.20;;;;;;;;;;5055535;28;20041;-90
2023/10/28 00:37:42;;;;;;;19.90;10.82;;;;;;;;;;5039688;28;20052;-88
2023/10/28 00:40:09;;;;;;;16.17;9.63;;;;;;;;;;5038700;28;20033;-87
2023/10/28 00:42:35;;;;;;;19.20;10.40;;;;;;;;;;5053958;28;20405;-89
2023/10/28 00:45:11;;;;;;;20.20;11.70;;;10.50;99.90;;;;;;5037582;28;20051;-92
2023/10/28 00:47:44;;;;;;;17.45;11.20;;;;;;;;;;5038658;28;20047;-88
2023/10/28 00:50:14;;;;;;;18.55;11.20;;;10.50;99.90;;;;;;5054894;28;20052;-91
2023/10/28 00:52:41;;;;;;;20.45;12.10;;;;;;;;;;5039187;28;20048;-90
2023/10/28 00:55:11;;;;;;;20.85;12.25;;;;;;;;;;5018189;28;20053;-90
2023/10/28 00:57:38;;;;;;;20.02;12.13;;;;;;;;;;5035528;28;20391;-85
2023/10/28 01:00:08;;;;;;;24.13;13.27;;;;;;;;;;5040419;28;20040;-84
2023/10/28 01:02:35;;;;;;;21.30;13.30;;;10.60;99.90;;;;;;5038079;28;20044;-85
2023/10/28 01:05:01;;;;;;;25.83;14.77;;;;;;;;;;5038536;28;20477;-84
2023/10/28 01:07:28;;;;;;;26.42;15.45;;;;;;;;;;5055251;28;20054;-83
2023/10/28 01:09:54;;;;;;;30.88;15.55;;;;;;;;;;5037827;28;20048;-82
2023/10/28 01:12:23;;;;;;;29.08;16.25;;;;;;;;;;5036622;28;20086;-82
2023/10/28 01:14:53;;;;;;;25.92;15.20;;;;;;;;;;5056352;28;20059;-85
2023/10/28 01:17:21;;;;;;;32.00;16.13;;;;;;;;;;5039864;28;20041;-84
2023/10/28 01:19:47;;;;;;;28.05;17.20;;;;;;;;;;5037588;28;20036;-88
2023/10/28 01:22:13;;;;;;;31.10;16.75;;;;;;;;;;5052304;28;20040;-92
2023/10/28 01:24:40;;;;;;;37.95;18.67;;;;;;;;;;5039383;28;20053;-89
2023/10/28 01:27:09;;;;;;;35.88;18.88;;;;;;;;;;5038966;28;20048;-92
2023/10/28 01:29:35;;;;;;;31.80;18.25;;;;;;;;;;5037990;28;20040;-92
2023/10/28 01:32:05;;;;;;;33.35;18.58;;;;;;;;;;5037682;28;20405;-94
2023/10/28 01:34:31;;;;;;;30.45;19.38;;;;;;;;;;5039078;28;20047;-89
2023/10/28 01:36:57;;;;;;;36.28;19.02;;;;;;;;;;5055478;28;20045;-90
2023/10/28 01:39:23;;;;;;;33.30;18.23;;;;;;;;;;5055216;28;20045;-87
2023/10/28 01:41:49;;;;;;;35.08;19.95;;;;;;;;;;5036940;28;20132;-86
2023/10/28 01:44:16;;;;;;;35.10;20.17;;;;;;;;;;5021951;28;20040;-91
2023/10/28 01:46:42;;;;;;;35.42;18.83;;;;;;;;;;5039431;28;20055;-89
2023/10/28 01:49:10;;;;;;;35.72;20.13;;;;;;;;;;5037968;28;20040;-90
2023/10/28 01:51:36;;;;;;;33.60;19.00;;;;;;;;;;5038807;28;20064;-89
2023/10/28 01:54:02;;;;;;;38.70;20.70;;;;;;;;;;5036874;28;20071;-90
2023/10/28 01:56:29;;;;;;;35.28;19.73;;;;;;;;;;5034715;28;20102;-90
2023/10/28 01:58:55;;;;;;;35.38;19.50;;;;;;;;;;5030499;28;20070;-90
2023/10/28 02:01:25;;;;;;;36.20;20.17;;;;;;;;;;5054409;28;20505;-90
2023/10/28 02:03:51;;;;;;;36.28;20.73;;;;;;;;;;5020542;28;20067;-87
2023/10/28 02:06:17;;;;;;;35.53;19.48;;;;;;;;;;5021369;28;20508;-85
2023/10/28 02:08:43;;;;;;;40.90;19.65;;;;;;;;;;5035630;28;20060;-91
2023/10/28 02:11:09;;;;;;;33.22;18.52;;;;;;;;;;5037262;28;20048;-91
2023/10/28 02:13:35;;;;;;;36.63;20.83;;;;;;;;;;5037156;28;20072;-91
2023/10/28 02:16:02;;;;;;;43.45;21.42;;;;;;;;;;5037871;28;20040;-90
2023/10/28 02:18:28;;;;;;;39.30;20.10;;;;;;;;;;5054441;28;20041;-87
2023/10/28 02:20:54;;;;;;;35.65;18.33;;;;;;;;;;5022031;28;20135;-90
2023/10/28 02:23:20;;;;;;;34.55;19.83;;;;;;;;;;5018021;28;20045;-90
2023/10/28 02:25:46;;;;;;;32.25;19.08;;;;;;;;;;5036280;28;20114;-92
2023/10/28 02:28:13;;;;;;;33.92;20.00;;;10.50;99.90;;;;;;5022243;28;20382;-92
2023/10/28 02:30:39;;;;;;;35.38;20.15;;;;;;;;;;5035877;28;20503;-86
2023/10/28 02:33:06;;;;;;;36.70;20.60;;;;;;;;;;5054437;28;20044;-92
2023/10/28 02:35:32;;;;;;;37.10;20.73;;;;;;;;;;5054041;28;20048;-88
2023/10/28 02:37:58;;;;;;;34.03;19.35;;;;;;;;;;5036701;28;20060;-84
2023/10/28 02:40:24;;;;;;;34.05;19.55;;;;;;;;;;5037909;28;20132;-90
2023/10/28 02:42:50;;;;;;;41.70;18.58;;;;;;;;;;5037137;28;20044;-86
2023/10/28 02:45:17;;;;;;;37.83;19.95;;;;;;;;;;5037594;28;20097;-91
2023/10/28 02:47:43;;;;;;;33.75;19.08;;;;;;;;;;5053052;28;20040;-87
2023/10/28 02:50:09;;;;;;;36.08;19.88;;;;;;;;;;5020627;28;20044;-87
2023/10/28 02:52:36;;;;;;;40.97;20.90;;;;;;;;;;5017113;28;20061;-91
2023/10/28 02:55:02;;;;;;;35.85;20.02;;;;;;;;;;5038160;28;20076;-82
2023/10/28 02:57:28;;;;;;;38.90;19.83;;;;;;;;;;5037148;28;20049;-92
2023/10/28 02:59:54;;;;;;;31.27;18.38;;;;;;;;;;5026967;28;20041;-92
2023/10/28 03:02:21;;;;;;;30.02;18.33;;;;;;;;;;5038732;28;20413;-93
2023/10/28 03:04:47;;;;;;;30.48;18.20;;;;;;;;;;5038619;28;20045;-91
2023/10/28 03:07:13;;;;;;;33.60;17.30;;;;;;;;;;5036967;28;20565;-91
2023/10/28 03:09:39;;;;;;;35.22;17.50;;;;;;;;;;5021056;28;20037;-90
2023/10/28 03:12:06;;;;;;;31.60;17.95;;;;;;;;;;5021674;28;20045;-92
2023/10/28 03:14:32;;;;;;;30.80;17.05;;;;;;;;;;5038070;28;20047;-92
2023/10/28 03:16:58;;;;;;;30.63;16.95;;;;;;;;;;5036418;28;20039;-91
2023/10/28 03:19:27;;;;;;;28.50;16.67;;;;;;;;;;5037821;28;20098;-92
2023/10/28 03:21:53;;;;;;;30.38;17.48;;;;;;;;;;5021223;28;20041;-92
2023/10/28 03:24:19;;;;;;;31.25;17.00;;;;;;;;;;5038037;28;20477;-93
2023/10/28 03:26:46;;;;;;;33.05;16.13;;;;;;;;;;5034454;28;20037;-95
2023/10/28 03:29:12;;;;;;;40.65;17.30;;;;;;;;;;5037892;28;20044;-91
2023/10/28 03:31:38;;;;;;;37.50;18.08;;;;;;;;;;5037280;28;20394;-95
2023/10/28 03:34:05;;;;;;;32.92;16.40;;;;;;;;;;5021763;28;20045;-96
2023/10/28 03:36:31;;;;;;;25.15;15.35;;;;;;;;;;5020955;28;20147;-93
2023/10/28 03:38:57;;;;;;;28.00;16.70;;;;;;;;;;5021468;28;20107;-96
2023/10/28 03:41:23;;;;;;;28.95;16.05;;;;;;;;;;5020759;28;20055;-84
2023/10/28 03:43:49;;;;;;;33.85;15.57;;;;;;;;;;5020761;28;20382;-83
2023/10/28 03:46:18;;;;;;;28.88;15.57;;;;;;;;;;5035326;28;20049;-84
2023/10/28 03:48:45;;;;;;;29.52;15.52;;;;;;;;;;5037033;28;20448;-84
2023/10/28 03:51:11;;;;;;;29.73;15.88;;;;;;;;;;5026746;28;20044;-86
2023/10/28 03:53:37;;;;;;;23.92;14.18;;;;;;;;;;5022005;28;20056;-85
2023/10/28 03:56:05;;;;;;;20.83;13.40;;;;;;;;;;5025935;28;20075;-83
2023/10/28 03:58:31;;;;;;;29.25;15.50;;;;;;;;;;5036578;28;20052;-86
2023/10/28 04:00:58;;;;;;;22.88;14.20;;;;;;;;;;5020198;28;20572;-88
2023/10/28 04:03:24;;;;;;;28.20;14.55;;;;;;;;;;5020290;28;20132;-87
2023/10/28 04:05:51;;;;;;;25.88;15.05;;;;;;;;;;5034714;28;20498;-87
2023/10/28 04:08:17;;;;;;;24.35;14.57;;;;;;;;;;5020204;28;20112;-86
2023/10/28 04:10:43;;;;;;;29.33;15.02;;;;;;;;;;5019978;28;20080;-85
2023/10/28 04:13:12;;;;;;;26.55;14.02;;;;;;;;;;5019666;28;20512;-88
2023/10/28 04:15:38;;;;;;;34.10;15.48;;;;;;;;;;5018925;28;20087;-90
2023/10/28 04:18:04;;;;;;;25.30;13.18;;;;;;;;;;5020028;28;20151;-85
2023/10/28 04:20:31;;;;;;;22.88;13.88;;;;;;;;;;5003333;28;20044;-85
2023/10/28 04:22:57;;;;;;;27.23;13.90;;;;;;;;;;5020027;28;20080;-88
2023/10/28 04:25:23;;;;;;;26.55;13.13;;;;;;;;;;5002105;28;20048;-87
2023/10/28 04:27:50;;;;;;;30.20;13.60;;;;;;;;;;5036084;28;20041;-87
2023/10/28 04:30:16;;;;;;;22.70;13.20;;;;;;;;;;5003305;28;20037;-88
2023/10/28 04:32:43;;;;;;;23.35;13.35;;;;;;;;;;5003414;28;20087;-87
2023/10/28 04:35:10;;;;;;;22.90;13.85;;;;;;;;;;5034887;28;20124;-86
2023/10/28 04:37:36;;;;;;;25.02;13.43;;;;;;;;;;5003399;28;20490;-87
2023/10/28 04:40:05;;;;;;;24.98;14.95;;;;;;;;;;5019410;28;20044;-89
2023/10/28 04:42:31;;;;;;;23.60;14.98;;;;;;;;;;5018970;28;20037;-91
2023/10/28 04:44:57;;;;;;;25.45;15.02;;;;;;;;;;5019633;28;20044;-89
2023/10/28 04:47:26;;;;;;;29.67;13.77;;;;;;;;;;5034787;28;20037;-94
2023/10/28 04:49:52;;;;;;;37.38;14.82;;;;;;;;;;5019267;28;20033;-90
2023/10/28 04:52:20;;;;;;;29.40;15.07;;;;;;;;;;5024010;28;20052;-93
2023/10/28 04:54:46;;;;;;;27.17;14.80;;;;;;;;;;5040392;28;20044;-91
2023/10/28 04:57:12;;;;;;;32.63;14.35;;;;;;;;;;5056861;28;20119;-93
2023/10/28 04:59:39;;;;;;;25.98;13.80;;;;;;;;;;5041462;28;20612;-91
2023/10/28 05:02:06;;;;;;;31.17;16.27;;;;;;;;;;5057647;28;20048;-91
2023/10/28 05:04:32;;;;;;;35.03;14.95;;;;;;;;;;5039860;28;20050;-91
2023/10/28 05:06:58;;;;;;;32.95;15.82;;;;;;;;;;5039652;28;20056;-95
2023/10/28 05:09:24;;;;;;;28.23;16.75;;;;;;;;;;5022983;28;20043;-89
2023/10/28 05:11:54;;;;;;;31.02;15.25;;;;;;;;;;5039432;28;20075;-87
2023/10/28 05:14:21;;;;;;;34.03;15.23;;;;;;;;;;5055404;28;20044;-90
2023/10/28 05:16:47;;;;;;;35.90;16.40;;;;;;;;;;5053070;28;20040;-94
2023/10/28 05:19:13;;;;;;;36.03;15.90;;;;;;;;;;5055646;28;20500;-86
2023/10/28 05:21:39;;;;;;;29.25;15.02;;;;;;;;;;5039391;28;20106;-87
2023/10/28 05:24:05;;;;;;;32.35;16.70;;;;;;;;;;5038994;28;20481;-89
2023/10/28 05:26:32;;;;;;;34.60;15.90;;;;;;;;;;5038133;28;20119;-92
2023/10/28 05:28:58;;;;;;;28.42;16.05;;;;;;;;;;5021947;28;20409;-85
2023/10/28 05:31:28;;;;;;;31.48;15.27;;;;;;;;;;5021404;28;20045;-84
2023/10/28 05:33:54;;;;;;;26.60;16.42;;;;;;;;;;5042884;28;20040;-84
2023/10/28 05:36:20;;;;;;;33.95;16.88;;;;;;;;;;5016123;28;20055;-84
2023/10/28 05:38:46;;;;;;;24.27;16.40;;;;;;;;;;5024216;28;20036;-90
2023/10/28 05:41:12;;;;;;;35.92;17.52;;;;;;;;;;5023077;28;20511;-91
2023/10/28 05:43:39;;;;;;;32.70;16.02;;;;;;;;;;5022667;28;20044;-92
2023/10/28 05:46:05;;;;;;;30.33;15.85;;;;;;;;;;5039974;28;20131;-91
2023/10/28 05:48:32;;;;;;;28.88;16.58;;;;;;;;;;5053703;28;20086;-92
2023/10/28 05:50:59;;;;;;;29.58;16.13;;;;;;;;;;5054709;28;20068;-87
2023/10/28 05:53:25;;;;;;;29.33;16.23;;;;;;;;;;5018155;28;20114;-90
2023/10/28 05:55:52;;;;;;;26.08;15.65;;;;;;;;;;5035409;28;20049;-88
2023/10/28 05:58:18;;;;;;;30.63;14.48;;;;;;;;;;5036891;28;20076;-86
2023/10/28 06:00:44;;;;;;;29.77;15.32;;;;;;;;;;5039908;28;20048;-87
2023/10/28 06:03:12;;;;;;;29.17;15.70;;;;;;;;;;5054106;28;20513;-92
2023/10/28 06:05:38;;;;;;;24.17;14.88;;;;;;;;;;5038764;28;20531;-82
2023/10/28 06:08:04;;;;;;;36.33;14.85;;;;;;;;;;5038602;28;20084;-90
2023/10/28 06:10:34;;;;;;;32.22;15.40;;;;;;;;;;5036791;28;20075;-88
2023/10/28 06:13:01;;;;;;;29.42;15.35;;;;;;;;;;5036071;28;20043;-84
2023/10/28 06:15:27;;;;;;;26.05;15.02;;;;;;;;;;5053517;28;20127;-86
2023/10/28 06:17:53;;;;;;;33.47;14.55;;;;;;;;;;5035901;28;20413;-90
2023/10/28 06:20:20;;;;;;;31.00;14.05;;;;;;;;;;5033412;28;20110;-89
2023/10/28 06:22:46;;;;;;;31.15;15.35;;;;;;;;;;5053878;28;20045;-91
2023/10/28 06:25:14;;;;;;;29.40;15.18;;;;;;;;;;5020897;28;20055;-91
2023/10/28 06:27:40;;;;;;;36.83;15.68;;;;;;;;;;5036679;28;20045;-89
2023/10/28 06:30:07;;;;;;;28.95;14.77;;;;;;;;;;5037534;28;20048;-91
2023/10/28 06:32:33;;;;;;;30.98;16.35;;;;;;;;;;5052930;28;20099;-92
2023/10/28 06:35:00;;;;;;;31.42;14.23;;;;;;;;;;5036859;28;20071;-88
2023/10/28 06:37:26;;;;;;;28.90;14.80;;;;;;;;;;5036996;28;20110;-84
2023/10/28 06:39:52;;;;;;;32.08;15.00;;;;;;;;;;5020871;28;20075;-87
2023/10/28 06:42:18;;;;;;;34.85;15.80;;;;;;;;;;5019764;28;20127;-86
2023/10/28 06:44:44;;;;;;;34.40;15.32;;;;;;;;;;5036999;28;20083;-90
2023/10/28 06:47:11;;;;;;;29.20;15.45;;;;;;;;;;5020552;28;20049;-89
2023/10/28 06:49:37;;;;;;;26.45;14.57;;;;;;;;;;5036972;28;20409;-90
2023/10/28 06:52:03;;;;;;;37.25;13.75;;;;;;;;;;5035002;28;20078;-89
2023/10/28 06:54:30;;;;;;;25.05;13.77;;;;;;;;;;5020591;28;20496;-89
2023/10/28 06:56:56;;;;;;;23.63;13.55;;;;;;;;;;5052947;28;20131;-89
2023/10/28 06:59:23;;;;;;;25.65;12.98;;;;;;;;;;5053497;28;20082;-89
2023/10/28 07:01:50;;;;;;;19.60;11.43;;;;;;;;;;5051099;28;20052;-90
2023/10/28 07:04:16;;;;;;;21.08;12.40;;;;;;;;;;5020496;28;20492;-89
2023/10/28 07:06:45;;;;;;;22.27;12.90;;;;;;;;;;5018639;28;20045;-86
2023/10/28 07:09:11;;;;;;;18.77;11.07;;;;;;;;;;5049856;28;20041;-87
2023/10/28 07:11:38;;;;;;;21.13;10.15;;;;;;;;;;5038593;28;20037;-88
2023/10/28 07:14:04;;;;;;;22.45;10.82;;;;;;;;;;5020811;28;20084;-86
2023/10/28 07:16:31;;;;;;;19.45;11.30;;;;;;;;;;5033542;28;20045;-86
2023/10/28 07:18:57;;;;;;;19.08;11.23;;;;;;;;;;5037153;28;20065;-88
2023/10/28 07:21:23;;;;;;;15.13;9.50;;;;;;;;;;5035644;28;20123;-89
2023/10/28 07:23:49;;;;;;;20.90;10.70;;;;;;;;;;5036497;28;20087;-88
2023/10/28 07:26:16;;;;;;;19.70;9.80;;;;;;;;;;5036878;28;20059;-89
2023/10/28 07:28:42;;;;;;;16.80;10.10;;;;;;;;;;5053747;28;20520;-87
2023/10/28 07:31:08;;;;;;;15.52;8.93;;;;;;;;;;5035580;28;20468;-87
2023/10/28 07:33:35;;;;;;;15.10;9.50;;;;;;;;;;5036166;28;20080;-84
2023/10/28 07:36:04;;;;;;;20.63;9.45;;;;;;;;;;5036714;28;20044;-87
2023/10/28 07:38:30;;;;;;;13.82;8.52;;;;;;;;;;5052974;28;20559;-87
2023/10/28 07:40:57;;;;;;;17.63;8.73;;;;;;;;;;5037339;28;20162;-87
2023/10/28 07:43:23;;;;;;;17.90;8.70;;;;;;;;;;5039475;28;20044;-87
2023/10/28 07:45:49;;;;;;;19.33;8.48;;;;;;;;;;5057085;28;20123;-88
2023/10/28 07:48:16;;;;;;;12.88;8.15;;;;;;;;;;5040394;28;20060;-83
2023/10/28 07:50:43;;;;;;;16.30;9.35;;;10.50;99.90;;;;;;5040297;28;20041;-90
2023/10/28 07:53:09;;;;;;;19.17;8.30;;;;;;;;;;5055471;28;20056;-88
2023/10/28 07:55:38;;;;;;;10.38;8.10;;;;;;;;;;5040263;28;20049;-84
2023/10/28 07:58:05;;;;;;;13.82;7.95;;;;;;;;;;5056116;28;20501;-86
2023/10/28 08:00:32;;;;;;;11.15;7.03;;;;;;;;;;5055921;28;20052;-85
2023/10/28 08:03:00;;;;;;;9.45;7.25;;;;;;;;;;5040002;28;20048;-90
2023/10/28 08:05:27;;;;;;;9.57;7.22;;;;;;;;;;5021928;28;20553;-87
2023/10/28 08:07:53;;;;;;;9.73;6.93;;;;;;;;;;5055654;28;20076;-84
2023/10/28 08:10:22;;;;;;;13.10;6.28;;;;;;;;;;5040313;28;20401;-82
2023/10/28 08:12:56;;;;;;;13.65;6.80;;;10.80;99.90;;;;;;5023927;28;20040;-81
2023/10/28 08:15:22;;;;;;;8.18;6.35;;;;;;;;;;5040108;28;20048;-91
2023/10/28 08:17:50;;;;;;;14.27;6.10;;;;;;;;;;5054675;28;20036;-90
2023/10/28 08:20:17;;;;;;;11.98;7.22;;;;;;;;;;5056148;28;20040;-85
2023/10/28 08:22:44;;;;;;;9.75;6.18;;;;;;;;;;5056088;28;20048;-86
2023/10/28 08:25:11;;;;;;;10.73;6.45;;;;;;;;;;5056220;28;20048;-84
2023/10/28 08:27:37;;;;;;;8.77;6.15;;;;;;;;;;5022018;28;20072;-84
2023/10/28 08:30:04;;;;;;;8.60;6.53;;;;;;;;;;5039644;28;20040;-90
2023/10/28 08:32:31;;;;;;;8.40;6.35;;;;;;;;;;5022060;28;20577;-83
2023/10/28 08:34:57;;;;;;;10.77;5.97;;;;;;;;;;5038964;28;20059;-83
2023/10/28 08:37:23;;;;;;;12.02;5.85;;;;;;;;;;5023010;28;20044;-85
2023/10/28 08:39:49;;;;;;;10.90;5.93;;;;;;;;;;5022983;28;20139;-81
2023/10/28 08:42:17;;;;;;;8.98;5.72;;;;;;;;;;5054776;28;20498;-87
2023/10/28 08:44:43;;;;;;;9.00;6.43;;;;;;;;;;5039195;28;20040;-88
2023/10/28 08:47:09;;;;;;;9.63;5.85;;;;;;;;;;5055655;28;20115;-86
2023/10/28 08:49:40;;;;;;;8.43;5.40;;;;;;;;;;5038895;28;20040;-85
2023/10/28 08:52:09;;;;;;;12.30;6.03;;;;;;;;;;5053544;28;20040;-87
2023/10/28 08:54:38;;;;;;;8.43;5.15;;;;;;;;;;5052849;28;20056;-85
2023/10/28 08:57:05;;;;;;;9.02;5.65;;;;;;;;;;5019279;28;20041;-85
2023/10/28 08:59:31;;;;;;;10.20;5.50;;;;;;;;;;5035156;28;20409;-85
2023/10/28 09:01:58;;;;;;;10.68;5.07;;;;;;;;;;5017969;28;20135;-85
2023/10/28 09:04:24;;;;;;;12.13;5.20;;;;;;;;;;5034574;28;20493;-80
2023/10/28 09:06:54;;;;;;;8.23;5.07;;;;;;;;;;5002681;28;20510;-87
2023/10/28 09:09:21;;;;;;;7.97;5.05;;;;;;;;;;5035348;28;20052;-87
2023/10/28 09:11:51;;;;;;;9.93;5.68;;;;;;;;;;5018188;28;20048;-87
2023/10/28 09:14:17;;;;;;;9.52;5.68;;;;;;;;;;5018590;28;20570;-87
2023/10/28 09:16:43;;;;;;;6.13;4.88;;;;;;;;;;5002372;28;20498;-87
2023/10/28 09:19:21;;;;;;;9.40;4.90;;;11.10;99.90;;;;;;5018971;28;20401;-87
2023/10/28 09:21:51;;;;;;;9.65;5.53;;;11.10;99.90;;;;;;5017986;28;20494;-85
2023/10/28 09:24:18;;;;;;;6.55;4.18;;;;;;;;;;5018001;28;20037;-90
2023/10/28 09:26:46;;;;;;;8.23;5.43;;;;;;;;;;5018886;28;20045;-90
2023/10/28 09:29:22;;;;;;;10.18;5.68;;;;;;;;;;5034854;28;20091;-88
2023/10/28 09:31:48;;;;;;;8.60;5.53;;;;;;;;;;5017084;28;20044;-88
2023/10/28 09:34:16;;;;;;;7.97;4.90;;;11.10;99.90;;;;;;5017913;28;20099;-89
2023/10/28 09:36:42;;;;;;;6.70;5.07;;;;;;;;;;4998340;28;20041;-86
2023/10/28 09:39:09;;;;;;;13.90;5.35;;;;;;;;;;5005752;28;20529;-87
2023/10/28 09:41:35;;;;;;;7.82;5.18;;;;;;;;;;5017960;28;20513;-90
2023/10/28 09:44:03;;;;;;;8.27;4.65;;;;;;;;;;5035033;28;20056;-91
2023/10/28 09:46:31;;;;;;;9.70;5.22;;;;;;;;;;5034883;28;20092;-90
2023/10/28 09:49:01;;;;;;;8.18;6.20;;;11.20;99.90;;;;;;5036046;28;20049;-82
2023/10/28 09:51:29;;;;;;;9.88;4.80;;;;;;;;;;5035901;28;20053;-90
2023/10/28 09:54:02;;;;;;;11.98;5.18;;;11.40;99.90;;;;;;5049035;28;20071;-91
2023/10/28 09:56:30;;;;;;;7.15;4.78;;;;;;;;;;5033683;28;20049;-90
2023/10/28 09:59:02;;;;;;;10.25;5.25;;;;;;;;;;5034546;28;20037;-79
2023/10/28 10:01:41;;;;;;;7.40;4.72;;;;;;;;;;5026002;28;20417;-82
2023/10/28 10:04:41;;;;;;;10.07;5.07;;;11.50;99.90;;;;;;5038530;28;20413;-84
2023/10/28 10:07:09;;;;;;;10.32;5.97;;;;;;;;;;5033581;28;20064;-82
2023/10/28 10:09:47;;;;;;;11.00;4.78;;;;;;;;;;5042487;28;20401;-84
2023/10/28 10:12:13;;;;;;;11.48;5.28;;;;;;;;;;5036841;28;20509;-87
2023/10/28 10:14:45;;;;;;;5.45;4.25;;;;;;;;;;5018160;28;20041;-89
2023/10/28 10:17:17;;;;;;;12.88;4.68;;;;;;;;;;5034282;28;20045;-89
2023/10/28 10:19:43;;;;;;;7.50;4.15;;;;;;;;;;5033696;28;20033;-85
2023/10/28 10:22:10;;;;;;;11.25;4.28;;;;;;;;;;5034618;28;20135;-83
2023/10/28 10:24:36;;;;;;;10.18;4.63;;;;;;;;;;5001457;28;20406;-81
2023/10/28 10:27:03;;;;;;;7.38;4.30;;;;;;;;;;5017489;28;20142;-81
2023/10/28 10:29:40;;;;;;;7.55;4.32;;;;;;;;;;5033167;28;20044;-81
2023/10/28 10:32:16;;;;;;;6.70;4.03;;;11.40;99.90;;;;;;5026460;28;20045;-80
2023/10/28 10:34:45;;;;;;;9.38;4.45;;;;;;;;;;5034221;28;20044;-81
2023/10/28 10:37:24;;;;;;;6.30;4.60;;;;;;;;;;5034123;28;20441;-81
2023/10/28 10:39:51;;;;;;;8.32;5.13;;;;;;;;;;5017122;28;20132;-82
2023/10/28 10:42:17;;;;;;;10.15;4.65;;;;;;;;;;5033961;28;20084;-83
2023/10/28 10:44:43;;;;;;;7.57;4.18;;;;;;;;;;5033956;28;20053;-86
2023/10/28 10:47:11;;;;;;;10.60;4.43;;;;;;;;;;5034337;28;20568;-84
2023/10/28 10:49:38;;;;;;;6.38;4.55;;;;;;;;;;5016750;28;20041;-85
2023/10/28 10:52:05;;;;;;;7.25;4.68;;;;;;;;;;5033583;28;20049;-80
2023/10/28 10:54:33;;;;;;;8.73;4.57;;;11.70;99.90;;;;;;5016794;28;20041;-82
2023/10/28 10:57:00;;;;;;;5.93;4.28;;;;;;;;;;5007246;28;20053;-82
2023/10/28 10:59:31;;;;;;;9.90;5.75;;;11.60;99.90;;;;;;4995889;28;20041;-81
2023/10/28 11:01:58;;;;;;;8.90;4.75;;;;;;;;;;5017249;28;20041;-85
2023/10/28 11:04:25;;;;;;;7.65;4.43;;;;;;;;;;5032940;28;20064;-88
2023/10/28 11:06:54;;;;;;;16.17;5.13;;;;;;;;;;5017633;28;20055;-90
2023/10/28 11:09:21;;;;;;;6.72;4.90;;;;;;;;;;5016109;28;20047;-80
2023/10/28 11:11:50;;;;;;;9.27;4.60;;;;;;;;;;5033147;28;20068;-88
2023/10/28 11:14:17;;;;;;;11.60;4.15;;;;;;;;;;5027124;28;20049;-88
2023/10/28 11:16:44;;;;;;;10.63;5.22;;;;;;;;;;5036297;28;20075;-86
2023/10/28 11:19:11;;;;;;;9.52;4.32;;;;;;;;;;5003928;28;20060;-85
2023/10/28 11:21:39;;;;;;;8.75;4.32;;;;;;;;;;5037035;28;20553;-86
2023/10/28 11:24:07;;;;;;;11.10;4.82;;;;;;;;;;5017267;28;20412;-89
2023/10/28 11:26:33;;;;;;;9.57;4.43;;;;;;;;;;5020377;28;20052;-92
2023/10/28 11:28:59;;;;;;;6.75;3.38;;;;;;;;;;5036185;28;20095;-91
2023/10/28 11:31:30;;;;;;;6.57;4.05;;;;;;;;;;5036765;28;20087;-90
2023/10/28 11:33:57;;;;;;;6.20;4.55;;;;;;;;;;5033343;28;20072;-91
2023/10/28 11:36:24;;;;;;;8.43;4.00;;;;;;;;;;5038715;28;20061;-91
2023/10/28 11:38:50;;;;;;;5.80;3.47;;;;;;;;;;5019786;28;20104;-91
2023/10/28 11:41:16;;;;;;;7.47;3.78;;;;;;;;;;5036491;28;20052;-90
2023/10/28 11:43:42;;;;;;;9.98;3.83;;;;;;;;;;5020050;28;20056;-91
2023/10/28 11:46:08;;;;;;;5.85;3.80;;;;;;;;;;5003487;28;20048;-88
2023/10/28 11:48:34;;;;;;;6.88;4.18;;;;;;;;;;5036100;28;20037;-87
2023/10/28 11:51:01;;;;;;;6.15;4.10;;;;;;;;;;5020204;28;20063;-88
2023/10/28 11:53:28;;;;;;;5.38;3.10;;;;;;;;;;5037763;28;20425;-89
2023/10/28 11:55:57;;;;;;;6.97;3.55;;;;;;;;;;5019565;28;20490;-89
2023/10/28 11:58:26;;;;;;;10.88;4.05;;;;;;;;;;5003929;28;20044;-89
2023/10/28 12:00:53;;;;;;;7.95;3.53;;;;;;;;;;5036696;28;20033;-92
2023/10/28 12:03:20;;;;;;;11.27;5.07;;;;;;;;;;5036836;28;20048;-92
2023/10/28 12:05:46;;;;;;;7.10;3.05;;;;;;;;;;5019177;28;20037;-88
2023/10/28 12:08:13;;;;;;;9.63;4.53;;;;;;;;;;5020261;28;20052;-87
2023/10/28 12:10:46;;;;;;;5.05;3.35;;;;;;;;;;5023886;28;20102;-91
2023/10/28 12:13:21;;;;;;;6.32;3.50;;;;;;;;;;5021993;28;20037;-90
2023/10/28 12:15:47;;;;;;;13.25;4.47;;;;;;;;;;5004086;28;20067;-89
2023/10/28 12:18:13;;;;;;;9.20;4.00;;;;;;;;;;5035242;28;20110;-88
2023/10/28 12:20:39;;;;;;;6.63;3.90;;;;;;;;;;5004547;28;20036;-83
2023/10/28 12:23:06;;;;;;;7.50;3.47;;;;;;;;;;5019704;28;20465;-91
2023/10/28 12:25:34;;;;;;;5.45;3.60;;;;;;;;;;5036123;28;20539;-90
2023/10/28 12:28:00;;;;;;;8.55;3.70;;;;;;;;;;5035654;28;20497;-90
2023/10/28 12:30:27;;;;;;;4.65;3.38;;;;;;;;;;5019309;28;20040;-86
2023/10/28 12:32:53;;;;;;;5.30;3.85;;;;;;;;;;5002951;28;20044;-90
2023/10/28 12:35:19;;;;;;;7.05;3.38;;;;;;;;;;5035249;28;20053;-85
2023/10/28 12:37:45;;;;;;;5.20;3.05;;;;;;;;;;5002238;28;20063;-91
2023/10/28 12:40:12;;;;;;;7.68;3.50;;;;;;;;;;5002958;28;20040;-92
2023/10/28 12:42:38;;;;;;;6.15;3.10;;;;;;;;;;5003021;28;20049;-90
2023/10/28 12:45:05;;;;;;;6.65;4.00;;;;;;;;;;5018613;28;20041;-92
2023/10/28 12:47:31;;;;;;;6.70;3.08;;;;;;;;;;5019575;28;20107;-91
2023/10/28 12:49:57;;;;;;;7.05;3.40;;;;;;;;;;5019136;28;20041;-91
2023/10/28 12:52:23;;;;;;;5.70;3.20;;;;;;;;;;5023778;28;20059;-91
2023/10/28 12:54:50;;;;;;;3.65;2.58;;;;;;;;;;5022046;28;20418;-86
2023/10/28 12:57:16;;;;;;;8.32;3.05;;;;;;;;;;5022443;28;20084;-89
2023/10/28 12:59:46;;;;;;;9.85;3.28;;;;;;;;;;5053613;28;20501;-91
2023/10/28 13:02:12;;;;;;;6.30;3.25;;;;;;;;;;5039799;28;20497;-92
2023/10/28 13:04:38;;;;;;;6.80;3.47;;;;;;;;;;5039428;28;20037;-83
2023/10/28 13:07:04;;;;;;;4.40;3.17;;;;;;;;;;5038487;28;20416;-89
2023/10/28 13:09:31;;;;;;;10.75;3.80;;;;;;;;;;5055797;28;20048;-88
2023/10/28 13:11:59;;;;;;;4.90;2.70;;;;;;;;;;5037563;28;20055;-87
2023/10/28 13:14:27;;;;;;;11.02;2.95;;;;;;;;;;5021042;28;20519;-87
2023/10/28 13:16:53;;;;;;;5.13;3.05;;;;;;;;;;5035190;28;20496;-89
2023/10/28 13:19:22;;;;;;;9.07;3.22;;;;;;;;;;5054812;28;20041;-88
2023/10/28 13:21:49;;;;;;;5.05;3.15;;;;;;;;;;5054895;28;20098;-88
2023/10/28 13:24:15;;;;;;;7.32;3.15;;;;;;;;;;5037080;28;20067;-88
2023/10/28 13:26:41;;;;;;;7.57;3.53;;;;;;;;;;5054986;28;20133;-88
2023/10/28 13:29:10;;;;;;;9.35;3.53;;;;;;;;;;5053876;28;20044;-87
2023/10/28 13:31:36;;;;;;;10.18;3.55;;;;;;;;;;5017578;28;20521;-85
2023/10/28 13:34:04;;;;;;;5.40;3.10;;;;;;;;;;5018987;28;20048;-86
2023/10/28 13:36:31;;;;;;;6.15;3.47;;;;;;;;;;5019632;28;20057;-86
2023/10/28 13:38:57;;;;;;;8.55;2.88;;;;;;;;;;5021965;28;20045;-86
2023/10/28 13:41:24;;;;;;;6.00;3.45;;;;;;;;;;5038118;28;20050;-85
2023/10/28 13:43:50;;;;;;;5.32;2.83;;;;;;;;;;5037526;28;20040;-90
2023/10/28 13:46:16;;;;;;;5.55;3.17;;;;;;;;;;5053596;28;20070;-90
2023/10/28 13:48:43;;;;;;;7.82;2.90;;;;;;;;;;5053102;28;20125;-88
2023/10/28 13:51:09;;;;;;;9.95;4.10;;;;;;;;;;5035340;28;20040;-88
2023/10/28 13:53:35;;;;;;;5.38;2.88;;;;;;;;;;5038653;28;20135;-90
2023/10/28 13:56:01;;;;;;;8.80;3.35;;;;;;;;;;5052637;28;20113;-91
2023/10/28 13:58:28;;;;;;;6.65;2.60;;;;;;;;;;5034970;28;20040;-89
2023/10/28 14:00:54;;;;;;;4.60;2.75;;;;;;;;;;5049556;28;20059;-92
2023/10/28 14:03:22;;;;;;;5.97;3.22;;;;;;;;;;5038046;28;20044;-86
2023/10/28 14:05:49;;;;;;;4.93;2.60;;;;;;;;;;5036109;28;20052;-89
2023/10/28 14:08:16;;;;;;;3.95;2.50;;;;;;;;;;5035257;28;20056;-89
2023/10/28 14:10:46;;;;;;;5.75;2.35;;;;;;;;;;5054357;28;20509;-93
2023/10/28 14:13:12;;;;;;;7.90;2.90;;;;;;;;;;5054361;28;20051;-90
2023/10/28 14:15:42;;;;;;;5.63;3.20;;;;;;;;;;5053156;28;20036;-83
2023/10/28 14:18:09;;;;;;;7.15;2.63;;;13.00;99.90;;;;;;5035869;28;20572;-90
2023/10/28 14:20:35;;;;;;;2.60;2.10;;;;;;;;;;5035683;28;20042;-92